createdAt,value
2022-08-22T00:00:56.982Z,2.85
2022-08-22T00:02:45.720Z,2.53
2022-08-22T00:03:00.667Z,2.60
2022-08-22T00:06:12.374Z,2.78
2022-08-22T00:08:54.512Z,2.67
2022-08-22T00:11:43.243Z,3.00
2022-08-22T00:14:20.234Z,2.30
2022-08-22T00:16:57.486Z,3.05
2022-08-22T00:19:40.124Z,3.15
2022-08-22T00:22:16.828Z,3.30
2022-08-22T00:24:49.394Z,3.13
2022-08-22T00:27:21.892Z,2.60
2022-08-22T00:29:55.452Z,2.90
2022-08-22T00:32:29.623Z,3.10
2022-08-22T00:35:00.804Z,3.13
2022-08-22T00:37:35.104Z,2.90
2022-08-22T00:40:21.269Z,3.17
2022-08-22T00:43:18.682Z,3.42
2022-08-22T00:48:56.374Z,3.10
2022-08-22T00:57:18.843Z,2.83
2022-08-22T01:00:16.902Z,2.95
2022-08-22T01:03:11.492Z,3.10
2022-08-22T01:06:01.423Z,4.15
2022-08-22T01:08:47.013Z,3.75
2022-08-22T01:11:42.275Z,3.67
2022-08-22T01:14:34.195Z,3.25
2022-08-22T01:17:43.025Z,3.35
2022-08-22T01:21:08.033Z,3.28
2022-08-22T01:24:38.762Z,3.50
2022-08-22T01:27:52.923Z,3.38
2022-08-22T01:30:53.313Z,3.63
2022-08-22T01:33:52.323Z,3.30
2022-08-22T01:36:55.684Z,3.47
2022-08-22T01:39:52.916Z,2.60
2022-08-22T01:42:51.234Z,3.50
2022-08-22T01:45:42.804Z,3.08
2022-08-22T01:48:17.183Z,2.70
2022-08-22T01:50:49.746Z,2.50
2022-08-22T01:53:24.793Z,2.90
2022-08-22T01:56:13.416Z,2.92
2022-08-22T01:58:54.004Z,2.65
2022-08-22T02:01:31.245Z,2.40
2022-08-22T02:04:05.723Z,2.75
2022-08-22T02:06:44.884Z,2.78
2022-08-22T02:09:30.262Z,3.53
2022-08-22T02:12:21.593Z,3.28
2022-08-22T02:14:59.354Z,3.45
2022-08-22T02:17:32.353Z,2.60
2022-08-22T02:20:07.413Z,2.53
2022-08-22T02:22:53.662Z,2.67
2022-08-22T02:25:26.264Z,2.40
2022-08-22T02:28:03.843Z,2.90
2022-08-22T02:30:47.324Z,2.50
2022-08-22T02:33:26.202Z,1.98
2022-08-22T02:36:00.462Z,2.30
2022-08-22T02:38:35.633Z,2.35
2022-08-22T02:41:16.684Z,2.40
2022-08-22T02:43:51.332Z,2.45
2022-08-22T02:46:28.656Z,2.70
2022-08-22T02:49:04.833Z,3.05
2022-08-22T02:51:41.653Z,2.92
2022-08-22T02:54:17.246Z,2.08
2022-08-22T02:56:52.718Z,2.67
2022-08-22T02:59:33.037Z,2.42
2022-08-22T03:02:32.607Z,1.95
2022-08-22T03:05:03.769Z,1.75
2022-08-22T03:07:39.496Z,1.75
2022-08-22T03:10:18.937Z,2.15
2022-08-22T03:13:00.846Z,2.20
2022-08-22T03:15:37.455Z,2.22
2022-08-22T03:18:16.958Z,3.55
2022-08-22T03:20:53.236Z,4.60
2022-08-22T03:26:02.276Z,6.10
2022-08-22T03:28:59.442Z,6.90
2022-08-22T03:31:31.725Z,5.60
2022-08-22T03:34:20.529Z,5.47
2022-08-22T03:36:58.615Z,5.60
2022-08-22T03:39:48.108Z,5.82
2022-08-22T03:43:00.896Z,6.05
2022-08-22T03:46:12.619Z,6.18
2022-08-22T03:49:05.546Z,6.07
2022-08-22T03:51:48.345Z,6.13
2022-08-22T03:54:57.890Z,6.28
2022-08-22T03:57:55.449Z,6.53
2022-08-22T04:03:35.566Z,7.47
2022-08-22T04:06:39.089Z,6.90
2022-08-22T04:09:32.268Z,7.05
2022-08-22T04:12:23.714Z,6.70
2022-08-22T04:15:29.824Z,5.38
2022-08-22T04:18:28.619Z,5.45
2022-08-22T04:21:29.797Z,4.75
2022-08-22T04:24:20.732Z,4.85
2022-08-22T04:26:52.966Z,4.10
2022-08-22T04:29:29.867Z,3.83
2022-08-22T04:32:04.421Z,4.07
2022-08-22T04:34:38.302Z,4.70
2022-08-22T04:37:15.053Z,4.00
2022-08-22T04:39:50.830Z,4.30
2022-08-22T04:42:37.138Z,4.07
2022-08-22T04:45:10.982Z,4.40
2022-08-22T04:47:42.113Z,4.93
2022-08-22T04:50:17.853Z,4.63
2022-08-22T04:53:04.234Z,5.17
2022-08-22T04:55:37.754Z,6.05
2022-08-22T04:58:19.904Z,5.45
2022-08-22T05:00:57.682Z,5.47
2022-08-22T05:03:29.184Z,4.93
2022-08-22T05:06:01.123Z,5.38
2022-08-22T05:08:34.122Z,4.80
2022-08-22T05:11:06.414Z,4.80
2022-08-22T05:13:41.763Z,5.25
2022-08-22T05:16:15.242Z,5.53
2022-08-22T05:18:49.134Z,5.82
2022-08-22T05:21:20.994Z,5.53
2022-08-22T05:23:54.422Z,5.40
2022-08-22T05:26:22.794Z,6.00
2022-08-22T05:28:54.982Z,6.20
2022-08-22T05:31:27.133Z,5.50
2022-08-22T05:33:59.854Z,6.22
2022-08-22T05:36:32.552Z,5.97
2022-08-22T05:39:09.484Z,5.65
2022-08-22T05:41:39.491Z,5.88
2022-08-22T05:44:16.994Z,5.70
2022-08-22T05:46:47.353Z,5.13
2022-08-22T05:49:20.203Z,5.25
2022-08-22T05:52:04.934Z,4.97
2022-08-22T05:54:47.403Z,5.03
2022-08-22T05:57:26.073Z,5.00
2022-08-22T06:00:01.223Z,4.85
2022-08-22T06:02:39.933Z,4.20
2022-08-22T06:05:12.045Z,3.88
2022-08-22T06:07:45.466Z,4.10
2022-08-22T06:10:23.772Z,3.90
2022-08-22T06:12:58.615Z,3.85
2022-08-22T06:15:34.592Z,4.18
2022-08-22T06:18:10.812Z,3.63
2022-08-22T06:20:43.683Z,4.00
2022-08-22T06:23:16.305Z,4.18
2022-08-22T06:25:50.611Z,3.65
2022-08-22T06:28:22.372Z,3.95
2022-08-22T06:30:53.750Z,4.20
2022-08-22T06:33:26.240Z,4.13
2022-08-22T06:36:20.654Z,4.05
2022-08-22T06:39:03.521Z,3.60
2022-08-22T06:41:36.505Z,3.90
2022-08-22T06:44:06.902Z,3.38
2022-08-22T06:46:38.417Z,3.75
2022-08-22T06:49:08.701Z,4.10
2022-08-22T06:51:38.472Z,4.20
2022-08-22T06:54:16.165Z,3.92
2022-08-22T06:56:48.633Z,3.97
2022-08-22T06:59:19.337Z,3.97
2022-08-22T07:01:52.145Z,4.35
2022-08-22T07:04:26.864Z,4.13
2022-08-22T07:06:57.165Z,3.47
2022-08-22T07:09:28.435Z,3.63
2022-08-22T07:12:01.541Z,3.95
2022-08-22T07:14:33.332Z,3.50
2022-08-22T07:17:04.357Z,3.65
2022-08-22T07:19:35.401Z,3.22
2022-08-22T07:22:14.123Z,3.60
2022-08-22T07:24:47.382Z,3.75
2022-08-22T07:27:31.667Z,3.78
2022-08-22T07:30:35.332Z,4.88
2022-08-22T07:33:26.286Z,3.60
2022-08-22T07:36:01.355Z,3.40
2022-08-22T07:38:43.002Z,3.55
2022-08-22T07:41:16.115Z,3.13
2022-08-22T07:43:49.776Z,3.58
2022-08-22T07:46:29.145Z,2.70
2022-08-22T07:49:10.056Z,3.05
2022-08-22T07:51:44.653Z,2.78
2022-08-22T07:54:16.504Z,3.00
2022-08-22T07:56:54.694Z,3.80
2022-08-22T07:59:27.515Z,2.83
2022-08-22T08:01:59.206Z,3.17
2022-08-22T08:04:33.456Z,3.50
2022-08-22T08:07:06.578Z,3.93
2022-08-22T08:09:39.244Z,4.03
2022-08-22T08:12:10.686Z,4.18
2022-08-22T08:14:44.663Z,4.15
2022-08-22T08:17:19.593Z,5.20
2022-08-22T08:19:48.755Z,5.95
2022-08-22T08:22:20.349Z,3.90
2022-08-22T08:25:09.696Z,3.92
2022-08-22T08:28:02.305Z,4.10
2022-08-22T08:30:40.154Z,3.42
2022-08-22T08:33:25.296Z,3.63
2022-08-22T08:36:04.808Z,3.78
2022-08-22T08:38:42.664Z,3.63
2022-08-22T08:41:37.074Z,3.70
2022-08-22T08:44:21.893Z,3.38
2022-08-22T08:47:18.136Z,3.47
2022-08-22T08:50:18.805Z,3.60
2022-08-22T08:53:25.496Z,3.08
2022-08-22T08:55:59.945Z,2.60
2022-08-22T08:58:37.990Z,3.08
2022-08-22T09:01:21.599Z,3.10
2022-08-22T09:04:20.363Z,2.70
2022-08-22T09:07:21.809Z,2.47
2022-08-22T09:10:11.684Z,2.70
2022-08-22T09:15:55.015Z,2.58
2022-08-22T09:18:56.855Z,2.53
2022-08-22T09:21:50.624Z,2.08
2022-08-22T09:25:01.153Z,2.50
2022-08-22T09:27:37.683Z,2.13
2022-08-22T09:30:11.587Z,2.22
2022-08-22T09:32:49.033Z,2.13
2022-08-22T09:35:25.314Z,1.40
2022-08-22T09:38:16.874Z,1.38
2022-08-22T09:40:55.924Z,1.38
2022-08-22T09:43:39.599Z,1.33
2022-08-22T09:46:18.972Z,1.30
2022-08-22T09:49:06.482Z,1.17
2022-08-22T09:51:45.454Z,1.10
2022-08-22T09:54:39.904Z,1.48
2022-08-22T09:57:22.775Z,1.20
2022-08-22T10:00:22.188Z,1.15
2022-08-22T10:03:03.746Z,1.30
2022-08-22T10:05:44.366Z,1.05
2022-08-22T10:08:31.667Z,1.30
2022-08-22T10:11:27.214Z,1.40
2022-08-22T10:14:08.804Z,1.15
2022-08-22T10:17:00.003Z,1.10
2022-08-22T10:19:33.194Z,1.10
2022-08-22T10:22:37.434Z,1.40
2022-08-22T10:25:34.638Z,1.13
2022-08-22T10:28:31.806Z,1.30
2022-08-22T10:31:12.014Z,0.90
2022-08-22T10:33:47.065Z,0.90
2022-08-22T10:36:23.463Z,1.27
2022-08-22T10:38:56.084Z,1.30
2022-08-22T10:41:32.114Z,0.70
2022-08-22T10:44:10.879Z,1.10
2022-08-22T10:46:47.203Z,1.05
2022-08-22T10:49:28.900Z,1.50
2022-08-22T10:52:14.701Z,0.98
2022-08-22T10:54:52.509Z,0.88
2022-08-22T10:57:52.855Z,0.80
2022-08-22T11:00:46.460Z,1.05
2022-08-22T11:03:25.501Z,0.90
2022-08-22T11:06:00.833Z,0.73
2022-08-22T11:08:56.268Z,0.60
2022-08-22T11:11:45.655Z,0.55
2022-08-22T11:14:35.360Z,0.50
2022-08-22T11:17:30.941Z,0.70
2022-08-22T11:20:19.804Z,0.88
2022-08-22T11:23:07.760Z,0.73
2022-08-22T11:25:54.002Z,1.02
2022-08-22T11:28:50.823Z,0.65
2022-08-22T11:31:31.835Z,0.80
2022-08-22T11:34:20.550Z,0.70
2022-08-22T11:36:53.731Z,1.20
2022-08-22T11:39:31.166Z,0.98
2022-08-22T11:42:07.325Z,0.90
2022-08-22T11:44:50.639Z,1.08
2022-08-22T11:47:26.347Z,0.88
2022-08-22T11:50:03.171Z,1.05
2022-08-22T11:52:54.302Z,0.93
2022-08-22T11:55:34.647Z,0.80
2022-08-22T11:58:29.253Z,0.70
2022-08-22T12:01:03.949Z,1.00
2022-08-22T12:04:04.810Z,0.63
2022-08-22T12:07:16.271Z,0.70
2022-08-22T12:09:52.674Z,0.32
2022-08-22T12:12:36.367Z,0.60
2022-08-22T12:15:18.371Z,0.80
2022-08-22T12:18:36.094Z,0.50
2022-08-22T12:24:21.651Z,0.60
2022-08-22T12:27:07.880Z,0.60
2022-08-22T12:29:45.388Z,0.70
2022-08-22T12:32:49.401Z,0.60
2022-08-22T12:35:35.630Z,0.45
2022-08-22T12:38:29.073Z,0.50
2022-08-22T12:41:28.484Z,0.43
2022-08-22T12:44:32.925Z,0.57
2022-08-22T12:47:32.184Z,0.40
2022-08-22T12:50:24.166Z,0.40
2022-08-22T12:53:07.496Z,0.40
2022-08-22T12:56:05.661Z,0.20
2022-08-22T12:58:54.828Z,0.47
2022-08-22T13:01:34.484Z,0.40
2022-08-22T13:04:32.532Z,0.52
2022-08-22T13:07:09.096Z,0.60
2022-08-22T13:09:39.824Z,0.30
2022-08-22T13:12:24.369Z,0.52
2022-08-22T13:14:56.923Z,0.50
2022-08-22T13:17:27.127Z,0.55
2022-08-22T13:20:09.605Z,0.40
2022-08-22T13:22:45.464Z,0.50
2022-08-22T13:25:26.514Z,0.35
2022-08-22T13:27:59.218Z,0.40
2022-08-22T13:30:33.155Z,0.55
2022-08-22T13:33:10.020Z,0.88
2022-08-22T13:35:51.693Z,0.90
2022-08-22T13:38:25.679Z,1.10
2022-08-22T13:40:57.203Z,0.90
2022-08-22T13:43:30.674Z,0.90
2022-08-22T13:46:02.666Z,0.90
2022-08-22T13:48:47.167Z,0.57
2022-08-22T13:51:25.150Z,0.95
2022-08-22T13:54:02.507Z,0.63
2022-08-22T13:56:50.755Z,0.60
2022-08-22T13:59:50.136Z,0.70
2022-08-22T14:02:34.772Z,0.73
2022-08-22T14:05:10.792Z,1.20
2022-08-22T14:10:20.030Z,0.75
2022-08-22T14:13:18.841Z,0.45
2022-08-22T14:15:49.080Z,0.55
2022-08-22T14:18:30.039Z,0.38
2022-08-22T14:21:40.641Z,0.60
2022-08-22T14:24:18.995Z,0.63
2022-08-22T14:27:05.631Z,0.63
2022-08-22T14:29:44.425Z,0.60
2022-08-22T14:32:37.660Z,0.70
2022-08-22T14:35:23.219Z,1.00
2022-08-22T14:38:18.523Z,1.10
2022-08-22T14:40:57.261Z,0.90
2022-08-22T14:43:47.670Z,0.80
2022-08-22T14:46:23.433Z,0.98
2022-08-22T14:49:28.845Z,1.02
2022-08-22T14:52:10.940Z,11.02
2022-08-22T14:55:07.568Z,7.35
2022-08-22T14:57:41.640Z,3.00
2022-08-22T15:00:13.026Z,1.58
2022-08-22T15:02:43.064Z,1.58
2022-08-22T15:05:18.983Z,1.10
2022-08-22T15:07:55.389Z,1.30
2022-08-22T15:10:31.593Z,1.00
2022-08-22T15:13:04.734Z,1.27
2022-08-22T15:15:41.086Z,1.05
2022-08-22T15:18:19.903Z,0.93
2022-08-22T15:21:02.003Z,1.38
2022-08-22T15:23:33.554Z,0.98
2022-08-22T15:26:24.502Z,0.73
2022-08-22T15:29:09.325Z,0.73
2022-08-22T15:31:41.701Z,0.60
2022-08-22T15:34:23.563Z,0.70
2022-08-22T15:37:32.475Z,0.75
2022-08-22T15:40:12.054Z,0.70
2022-08-22T15:42:44.934Z,0.73
2022-08-22T15:45:23.422Z,0.90
2022-08-22T15:47:53.892Z,1.00
2022-08-22T15:50:32.343Z,0.90
2022-08-22T15:53:24.643Z,1.27
2022-08-22T15:56:24.502Z,0.80
2022-08-22T15:59:26.639Z,0.65
2022-08-22T16:01:57.789Z,0.93
2022-08-22T16:04:40.848Z,0.50
2022-08-22T16:07:38.902Z,1.10
2022-08-22T16:10:13.324Z,0.80
2022-08-22T16:12:46.244Z,0.60
2022-08-22T16:15:56.702Z,0.80
2022-08-22T16:19:02.490Z,0.82
2022-08-22T16:22:07.842Z,0.63
2022-08-22T16:24:59.722Z,0.70
2022-08-22T16:27:30.953Z,0.50
2022-08-22T16:30:11.304Z,0.50
2022-08-22T16:32:50.624Z,0.75
2022-08-22T16:35:51.107Z,0.70
2022-08-22T16:38:26.197Z,0.40
2022-08-22T16:40:54.517Z,0.60
2022-08-22T16:43:24.993Z,1.38
2022-08-22T16:45:58.202Z,0.50
2022-08-22T16:48:33.801Z,0.60
2022-08-22T16:51:07.633Z,0.88
2022-08-22T16:54:11.483Z,0.70
2022-08-22T16:57:03.163Z,0.60
2022-08-22T17:00:00.013Z,0.60
2022-08-22T17:03:04.052Z,0.70
2022-08-22T17:05:47.752Z,1.02
2022-08-22T17:08:36.692Z,0.75
2022-08-22T17:11:19.571Z,0.80
2022-08-22T17:14:09.319Z,0.70
2022-08-22T17:16:54.041Z,0.75
2022-08-22T17:19:40.361Z,0.73
2022-08-22T17:22:19.095Z,0.80
2022-08-22T17:24:56.523Z,0.70
2022-08-22T17:27:31.984Z,0.90
2022-08-22T17:30:09.532Z,0.60
2022-08-22T17:33:03.124Z,0.80
2022-08-22T17:35:51.722Z,0.77
2022-08-22T17:38:30.683Z,1.30
2022-08-22T17:41:12.886Z,0.70
2022-08-22T17:43:57.043Z,0.80
2022-08-22T17:46:40.454Z,0.95
2022-08-22T17:49:26.723Z,1.02
2022-08-22T17:51:59.746Z,0.80
2022-08-22T17:54:35.905Z,0.85
2022-08-22T17:57:10.015Z,0.80
2022-08-22T17:59:47.273Z,0.70
2022-08-22T18:02:19.523Z,1.00
2022-08-22T18:04:58.642Z,0.93
2022-08-22T18:07:34.013Z,1.00
2022-08-22T18:10:09.372Z,1.33
2022-08-22T18:12:44.873Z,1.63
2022-08-22T18:15:21.922Z,1.33
2022-08-22T18:17:55.738Z,1.25
2022-08-22T18:20:31.014Z,1.30
2022-08-22T18:23:08.153Z,1.10
2022-08-22T18:26:04.713Z,1.13
2022-08-22T18:28:41.262Z,1.42
2022-08-22T18:31:36.400Z,1.20
2022-08-22T18:34:16.095Z,0.70
2022-08-22T18:36:55.391Z,1.20
2022-08-22T18:39:29.153Z,0.95
2022-08-22T18:42:04.813Z,1.00
2022-08-22T18:44:40.024Z,0.70
2022-08-22T18:47:17.127Z,0.93
2022-08-22T18:49:54.497Z,1.02
2022-08-22T18:52:38.323Z,1.10
2022-08-22T18:55:48.715Z,0.88
2022-08-22T18:58:47.373Z,1.25
2022-08-22T19:01:32.041Z,1.00
2022-08-22T19:04:45.874Z,1.10
2022-08-22T19:07:53.926Z,0.90
2022-08-22T19:10:43.489Z,1.30
2022-08-22T19:13:29.996Z,1.23
2022-08-22T19:16:13.851Z,1.52
2022-08-22T19:18:44.737Z,1.88
2022-08-22T19:21:39.866Z,1.42
2022-08-22T19:24:12.927Z,1.52
2022-08-22T19:26:43.519Z,1.83
2022-08-22T19:29:48.379Z,1.42
2022-08-22T19:32:51.505Z,1.90
2022-08-22T19:35:22.656Z,1.30
2022-08-22T19:37:54.022Z,1.58
2022-08-22T19:40:53.742Z,1.75
2022-08-22T19:43:31.887Z,1.42
2022-08-22T19:46:03.854Z,1.80
2022-08-22T19:48:44.616Z,1.75
2022-08-22T19:51:26.434Z,1.83
2022-08-22T19:54:16.935Z,1.70
2022-08-22T19:57:03.338Z,1.42
2022-08-22T20:02:22.180Z,2.10
2022-08-22T20:05:04.349Z,1.60
2022-08-22T20:07:46.031Z,1.73
2022-08-22T20:10:28.280Z,1.63
2022-08-22T20:13:05.672Z,1.70
2022-08-22T20:16:10.730Z,1.60
2022-08-22T20:19:16.901Z,1.50
2022-08-22T20:21:53.912Z,1.88
2022-08-22T20:24:25.723Z,1.70
2022-08-22T20:27:14.467Z,1.95
2022-08-22T20:29:49.367Z,1.70
2022-08-22T20:32:23.618Z,1.50
2022-08-22T20:34:57.441Z,1.90
2022-08-22T20:37:45.505Z,2.03
2022-08-22T20:40:55.976Z,1.77
2022-08-22T20:43:17.533Z,2.00
2022-08-22T20:45:59.792Z,1.75
2022-08-22T20:48:36.668Z,1.92
2022-08-22T20:51:05.843Z,2.10
2022-08-22T20:53:34.624Z,2.15
2022-08-22T20:56:03.455Z,2.20
2022-08-22T20:58:38.586Z,2.00
2022-08-22T21:01:10.312Z,2.08
2022-08-22T21:03:42.772Z,1.95
2022-08-22T21:06:13.535Z,1.88
2022-08-22T21:08:42.157Z,1.92
2022-08-22T21:11:28.862Z,1.75
2022-08-22T21:16:31.583Z,1.80
2022-08-22T21:19:04.370Z,2.43
2022-08-22T21:21:34.741Z,2.13
2022-08-22T21:24:05.913Z,1.52
2022-08-22T21:26:37.170Z,1.80
2022-08-22T21:29:07.734Z,1.77
2022-08-22T21:31:48.763Z,1.70
2022-08-22T21:34:21.096Z,1.98
2022-08-22T21:36:50.923Z,2.00
2022-08-22T21:39:21.798Z,1.90
2022-08-22T21:41:51.919Z,1.52
2022-08-22T21:44:28.536Z,1.65
2022-08-22T21:46:57.959Z,1.80
2022-08-22T21:49:29.717Z,2.03
2022-08-22T21:51:57.420Z,1.42
2022-08-22T21:54:40.228Z,1.90
2022-08-22T21:57:33.910Z,1.63
2022-08-22T22:00:02.338Z,2.03
2022-08-22T22:02:42.004Z,1.90
2022-08-22T22:05:23.997Z,1.95
2022-08-22T22:07:52.303Z,1.80
2022-08-22T22:10:22.883Z,1.45
2022-08-22T22:12:53.302Z,1.88
2022-08-22T22:15:23.934Z,1.52
2022-08-22T22:17:52.533Z,1.75
2022-08-22T22:20:24.476Z,1.63
2022-08-22T22:22:52.375Z,1.75
2022-08-22T22:25:40.853Z,2.03
2022-08-22T22:28:13.154Z,1.77
2022-08-22T22:30:41.759Z,1.90
2022-08-22T22:33:09.793Z,1.70
2022-08-22T22:35:41.144Z,1.80
2022-08-22T22:38:09.678Z,2.05
2022-08-22T22:40:37.704Z,2.03
2022-08-22T22:43:05.613Z,1.70
2022-08-22T22:45:33.505Z,2.08
2022-08-22T22:48:01.540Z,2.20
2022-08-22T22:50:29.393Z,2.45
2022-08-22T22:52:58.684Z,1.98
2022-08-22T22:55:27.010Z,1.63
2022-08-22T22:57:59.290Z,1.92
2022-08-22T23:00:30.767Z,1.63
2022-08-22T23:03:01.450Z,1.98
2022-08-22T23:05:30.756Z,1.67
2022-08-22T23:08:01.622Z,1.88
2022-08-22T23:10:31.594Z,1.75
2022-08-22T23:13:00.116Z,2.15
2022-08-22T23:15:28.944Z,1.80
2022-08-22T23:17:57.204Z,1.75
2022-08-22T23:20:25.895Z,1.70
2022-08-22T23:22:54.186Z,1.90
2022-08-22T23:25:24.123Z,1.90
2022-08-22T23:27:52.789Z,1.85
2022-08-22T23:30:21.960Z,1.75
2022-08-22T23:32:54.730Z,1.58
2022-08-22T23:35:23.181Z,1.70
2022-08-22T23:37:51.420Z,1.60
2022-08-22T23:40:20.087Z,1.95
2022-08-22T23:42:49.871Z,2.00
2022-08-22T23:45:18.272Z,1.85
2022-08-22T23:47:46.543Z,1.70
2022-08-22T23:50:14.782Z,1.58
2022-08-22T23:52:43.043Z,1.70
2022-08-22T23:55:11.291Z,1.98
2022-08-22T23:57:39.524Z,1.50
